Aviation Digital Data Service (ADDS)

Output produced by TAFs form (1124 UTC 25 August 2016)
found at http://aviationweather.gov/adds/tafs/
 
KEGE 251120Z 2512/2612 00000KT P6SM SKC 
     FM251800 25005KT P6SM BKN110 
     FM252100 25007KT P6SM VCTS SCT060CB BKN110 
     FM260500 20004KT P6SM BKN060 AMD LTD TO CLD VIS AND WIND TIL 251300